Time;durP1;ratioP1;P1;durP2;ratioP2;P2;SDS_P1;SDS_P2;PMS_P1;PMS_P2;Temp;Humidity;BMP_temperature;BMP_pressure;BME280_temperature;BME280_humidity;BME280_pressure;Samples;Min_cycle;Max_cycle;Signal;HPM_P1;HPM_P2
2022/12/02 00:02:49;;;;;;;;;;;;;;;2.22;100.00;95891.59;10506003;28;2579;-68
2022/12/02 00:07:58;;;;;;;;;;;;;;;2.20;100.00;95889.16;10506162;28;2632;-68
2022/12/02 00:13:02;;;;;;;;;;;;;;;2.09;100.00;95880.06;10510738;28;2180;-68
2022/12/02 00:18:06;;;;;;;;;;;;;;;2.06;100.00;95882.34;10512480;28;2621;-76
2022/12/02 00:23:09;;;;;;;;;;;;;;;2.09;100.00;95877.41;10520085;28;2714;-79
2022/12/02 00:28:12;;;;;;;;;;;;;;;2.04;100.00;95873.81;10515414;28;2573;-77
2022/12/02 00:33:17;;;;;;;;;;;;;;;1.83;100.00;95882.94;10513741;28;2633;-77
2022/12/02 00:38:20;;;;;;;;;;;;;;;1.87;100.00;95878.84;10517426;28;2334;-77
2022/12/02 00:48:45;;;;;;;;;;;;;;;1.69;100.00;95860.22;10520862;28;2645;-77
2022/12/02 00:53:48;;;;;;;;;;;;;;;1.90;100.00;95870.44;10521997;28;2565;-78
2022/12/02 00:58:51;;;;;;;;;;;3.00;99.90;;;2.04;100.00;95861.38;10529192;28;2645;-79
2022/12/02 01:03:53;;;;;;;;;;;3.00;99.90;;;2.05;100.00;95863.00;10525206;28;2155;-78
2022/12/02 01:08:56;;;;;;;;;;;3.20;99.90;;;2.03;100.00;95864.22;10529891;28;2564;-80
2022/12/02 01:13:59;;;;;;;;;;;3.20;99.90;;;2.00;100.00;95868.13;10525563;28;2606;-77
2022/12/02 01:19:02;;;;;;;;;;;3.20;99.90;;;2.08;100.00;95864.38;10525992;28;2669;-79
2022/12/02 01:24:05;;;;;;;;;;;3.30;99.90;;;2.07;100.00;95857.47;10518811;28;2525;-78
2022/12/02 01:29:08;;;;;;;;;;;3.40;99.90;;;2.05;100.00;95859.53;10521083;28;2585;-77
2022/12/02 01:34:11;;;;;;;;;;;3.30;99.90;;;2.04;100.00;95857.91;10516493;28;2256;-76
2022/12/02 01:39:14;;;;;;;;;;;3.30;99.90;;;2.11;100.00;95845.41;10525985;28;2592;-79
2022/12/02 01:44:16;;;;;;;;;;;3.30;99.90;;;2.12;100.00;95839.06;10521700;28;2563;-76
2022/12/02 01:49:19;;;;;;;;;;;3.30;99.90;;;2.08;100.00;95837.88;10526364;28;2176;-77
2022/12/02 01:54:22;;;;;;;;;;;3.30;99.90;;;2.05;100.00;95844.44;10524579;28;2625;-77
2022/12/02 01:59:24;;;;;;;;;;;3.20;99.90;;;1.99;100.00;95844.50;10532338;28;2185;-80
2022/12/02 02:04:27;;;;;;;;;;;3.20;99.90;;;2.05;100.00;95847.09;10522547;28;2669;-76
2022/12/02 02:09:35;;;;;;;;;;;3.20;99.90;;;1.88;100.00;95838.06;10521796;28;2565;-79
2022/12/02 02:14:38;;;;;;;;;;;3.20;99.90;;;1.96;100.00;95831.66;10534272;28;2635;-80
2022/12/02 02:19:42;;;;;;;;;;;3.20;99.90;;;1.99;100.00;95828.59;10523302;28;2637;-78
2022/12/02 02:24:45;;;;;;;;;;;3.20;99.90;;;2.04;100.00;95826.91;10523197;28;2669;-78
2022/12/02 02:29:48;;;;;;;;;;;3.20;99.90;;;1.96;100.00;95824.50;10537112;28;2637;-78
2022/12/02 02:34:51;;;;;;;;;;;3.20;99.90;;;1.88;100.00;95830.91;10525819;28;2705;-78
2022/12/02 02:39:54;;;;;;;;;;;3.20;99.90;;;1.80;100.00;95825.88;10531982;28;2613;-77
2022/12/02 02:44:56;;;;;;;;;;;3.10;99.90;;;1.89;100.00;95821.91;10522167;28;2656;-76
2022/12/02 02:49:59;;;;;;;;;;;3.10;99.90;;;1.76;100.00;95810.63;10526435;28;2643;-78
2022/12/02 02:55:02;;;;;;;;;;;3.10;99.90;;;1.78;100.00;95805.91;10530836;28;2618;-76
2022/12/02 03:00:05;;;;;;;;;;;3.00;99.90;;;1.94;100.00;95813.31;10534788;28;2636;-77
2022/12/02 03:05:08;;;;;;;;;;;3.10;99.90;;;1.97;100.00;95804.91;10528255;28;2695;-77
2022/12/02 03:10:10;;;;;;;;;;;3.10;99.90;;;1.94;100.00;95800.06;10533172;28;2184;-78
2022/12/02 03:15:13;;;;;;;;;;;3.20;99.90;;;1.87;100.00;95794.03;10533739;28;2598;-78
2022/12/02 03:20:16;;;;;;;;;;;3.10;99.90;;;2.06;100.00;95798.31;10519466;28;2580;-77
2022/12/02 03:25:25;;;;;;;;;;;3.10;99.90;;;2.02;100.00;95786.53;10520719;28;2632;-77
2022/12/02 03:30:28;;;;;;;;;;;3.20;99.90;;;2.00;100.00;95785.94;10520446;28;2790;-76
2022/12/02 03:35:31;;;;;;;;;;;3.40;99.90;;;1.97;100.00;95783.72;10524152;28;2200;-78
2022/12/02 03:40:33;;;;;;;;;;;3.20;99.90;;;1.97;100.00;95789.00;10523407;28;2674;-78
2022/12/02 03:45:36;;;;;;;;;;;3.20;99.90;;;2.08;100.00;95785.63;10512697;28;2653;-77
2022/12/02 03:50:39;;;;;;;;;;;3.20;99.90;;;2.01;100.00;95784.91;10516302;28;2588;-78
2022/12/02 03:55:41;;;;;;;;;;;3.30;99.90;;;2.11;100.00;95782.56;10513852;28;2658;-77
2022/12/02 04:00:44;;;;;;;;;;;3.30;99.90;;;2.08;100.00;95777.69;10514013;28;2581;-77
2022/12/02 04:05:46;;;;;;;;;;;3.30;99.90;;;2.00;100.00;95772.69;10475962;28;1067118;-77
2022/12/02 04:10:51;;;;;;;;;;;3.30;99.90;;;2.05;100.00;95780.78;10507376;28;2125;-78
2022/12/02 04:15:54;;;;;;;;;;;3.30;99.90;;;2.12;100.00;95773.56;10517496;28;2617;-77
2022/12/02 04:21:00;;;;;;;;;;;3.40;99.90;;;1.98;100.00;95768.63;10506706;28;2717;-77
2022/12/02 04:26:03;;;;;;;;;;;3.50;99.90;;;1.89;100.00;95760.16;10512118;28;2683;-78
2022/12/02 04:31:06;;;;;;;;;;;3.20;99.90;;;1.87;100.00;95756.91;10513963;28;2373;-77
2022/12/02 04:36:09;;;;;;;;;;;3.20;99.90;;;1.99;100.00;95763.13;10507759;28;2141;-78
2022/12/02 04:41:11;;;;;;;;;;;3.20;99.90;;;2.01;100.00;95752.28;10516959;28;2724;-77
2022/12/02 04:46:14;;;;;;;;;;;3.30;99.90;;;1.95;100.00;95766.41;10510773;28;2666;-77
2022/12/02 04:51:17;;;;;;;;;;;3.30;99.90;;;1.95;100.00;95761.09;10509963;28;2597;-76
2022/12/02 04:56:20;;;;;;;;;;;3.20;99.90;;;1.82;100.00;95759.41;10512487;28;2599;-78
2022/12/02 05:01:22;;;;;;;;;;;3.10;99.90;;;1.86;100.00;95764.06;10509894;28;2996;-77
2022/12/02 05:06:25;;;;;;;;;;;3.20;99.90;;;1.84;100.00;95757.34;10507418;28;2579;-77
2022/12/02 05:11:28;;;;;;;;;;;3.10;99.90;;;1.85;100.00;95759.78;10507450;28;2137;-78
2022/12/02 05:16:38;;;;;;;;;;;3.20;99.90;;;1.94;100.00;95751.53;10503073;28;2642;-77
2022/12/02 05:21:41;;;;;;;;;;;3.20;99.90;;;2.00;100.00;95755.97;10492891;28;2693;-78
2022/12/02 05:26:43;;;;;;;;;;;3.20;99.90;;;1.93;100.00;95745.44;10509833;28;2184;-79
2022/12/02 05:31:46;;;;;;;;;;;3.20;99.90;;;1.98;100.00;95750.91;10512013;28;2693;-78
2022/12/02 05:36:51;;;;;;;;;;;3.20;99.90;;;2.01;100.00;95752.28;10514631;28;2630;-78
2022/12/02 05:41:54;;;;;;;;;;;3.20;99.90;;;1.99;100.00;95752.50;10512241;28;2608;-78
2022/12/02 05:46:57;;;;;;;;;;;3.20;99.90;;;2.12;100.00;95749.72;10515853;28;2573;-79
2022/12/02 05:52:00;;;;;;;;;;;3.30;99.90;;;2.21;100.00;95747.56;10507554;28;2638;-77
2022/12/02 05:57:03;;;;;;;;;;;3.40;99.90;;;2.08;100.00;95742.41;10511591;28;2654;-80
2022/12/02 06:02:06;;;;;;;;;;;3.40;99.90;;;2.09;100.00;95746.69;10502844;28;2746;-78
2022/12/02 06:07:09;;;;;;;;;;;3.40;99.90;;;2.21;100.00;95746.75;10464596;28;2651;-77
2022/12/02 06:12:11;;;;;;;;;;;3.40;99.90;;;2.20;100.00;95747.78;10468153;28;2578;-78
2022/12/02 06:17:14;;;;;;;;;;;3.30;99.90;;;2.14;100.00;95741.53;10459144;28;2707;-78
2022/12/02 06:22:17;;;;;;;;;;;3.20;99.90;;;2.09;100.00;95750.13;10471828;28;2746;-78
2022/12/02 06:27:21;;;;;;;;;;;3.10;99.90;;;2.08;100.00;95753.81;10462960;28;2596;-78
2022/12/02 06:32:24;;;;;;;;;;;3.20;99.90;;;1.86;100.00;95750.81;10460041;28;2647;-79
2022/12/02 06:37:28;;;;;;;;;;;3.00;99.90;;;1.99;100.00;95749.84;10437880;28;3017;-79
2022/12/02 06:42:31;;;;;;;;;;;3.00;99.90;;;2.07;100.00;95757.50;10465346;28;2622;-78
2022/12/02 06:47:33;;;;;;;;;;;3.10;99.90;;;1.99;100.00;95752.50;10458377;28;2517;-79
2022/12/02 06:52:36;;;;;;;;;;;3.00;99.90;;;1.87;100.00;95754.25;10464493;28;2678;-77
2022/12/02 06:57:39;;;;;;;;;;;3.00;99.90;;;1.86;100.00;95750.00;10471869;28;2602;-79
2022/12/02 07:02:41;;;;;;;;;;;3.00;99.90;;;1.84;100.00;95754.69;10478068;28;2638;-79
2022/12/02 07:07:44;;;;;;;;;;;2.90;99.90;;;1.95;100.00;95753.97;10512111;28;2620;-79
2022/12/02 07:12:47;;;;;;;;;;;3.10;99.90;;;2.02;100.00;95753.91;10515844;28;2694;-79
2022/12/02 07:17:50;;;;;;;;;;;3.00;99.90;;;2.16;100.00;95750.91;10515536;28;2180;-80
2022/12/02 07:22:52;;;;;;;;;;;3.20;99.90;;;2.30;100.00;95750.75;10509873;28;2622;-78
2022/12/02 07:27:59;;;;;;;;;;;;;;;2.26;100.00;95752.22;10499102;28;2534;-79
2022/12/02 07:33:02;;;;;;;;;;;;;;;2.20;100.00;95743.28;10516323;28;2648;-79
2022/12/02 07:38:05;;;;;;;;;;;;;;;2.27;100.00;95751.97;10513647;28;2630;-79
2022/12/02 07:43:09;;;;;;;;;;;;;;;2.37;100.00;95756.78;10520895;28;2872;-78
2022/12/02 07:48:12;;;;;;;;;;;3.20;99.90;;;2.16;100.00;95742.94;10505941;28;2895;-81
2022/12/02 07:53:16;;;;;;;;;;;3.20;99.90;;;2.23;100.00;95753.47;10520088;28;2914;-81
2022/12/02 07:58:19;;;;;;;;;;;3.20;99.90;;;2.23;100.00;95755.28;10532857;28;3039;-82
2022/12/02 08:03:22;;;;;;;;;;;3.20;99.90;;;2.26;100.00;95750.38;10548309;28;2915;-80
2022/12/02 08:08:25;;;;;;;;;;;3.20;99.90;;;2.37;100.00;95746.16;10558294;28;2986;-81
2022/12/02 08:13:28;;;;;;;;;;;3.40;99.90;;;2.47;100.00;95749.09;10538553;28;2807;-85
2022/12/02 08:18:41;;;;;;;;;;;3.50;99.90;;;2.37;100.00;95746.97;10526819;28;3063;-84
2022/12/02 08:23:46;;;;;;;;;;;;;;;2.33;100.00;95750.28;10505468;28;2909;-71
2022/12/02 08:28:49;;;;;;;;;;;;;;;2.56;100.00;95749.59;10522162;28;2982;-72
2022/12/02 08:33:56;;;;;;;;;;;;;;;2.71;100.00;95742.84;10515625;28;2890;-71
2022/12/02 08:39:05;;;;;;;;;;;;;;;2.62;100.00;95749.53;10519841;28;2895;-72
2022/12/02 08:44:08;;;;;;;;;;;;;;;2.60;100.00;95746.25;10525706;28;2739;-80
2022/12/02 08:49:12;;;;;;;;;;;;;;;2.54;100.00;95736.53;10524010;28;2921;-77
2022/12/02 08:54:15;;;;;;;;;;;;;;;2.61;100.00;95742.59;10530106;28;2856;-77
2022/12/02 08:59:17;;;;;;;;;;;3.50;99.90;;;2.71;100.00;95740.19;10534258;28;2811;-73
2022/12/02 09:04:20;;;;;;;;;;;3.50;99.90;;;2.68;100.00;95732.72;10523228;28;2922;-73
2022/12/02 09:09:23;;;;;;;;;;;3.70;99.90;;;2.72;100.00;95735.69;10521807;28;2506;-75
2022/12/02 09:14:25;;;;;;;;;;;3.70;99.90;;;2.78;100.00;95741.97;10494070;28;2875;-77
2022/12/02 09:19:28;;;;;;;;;;;3.70;99.90;;;2.89;100.00;95743.84;10517625;28;2418;-80
2022/12/02 09:24:33;;;;;;;;;;;3.70;99.90;;;2.93;100.00;95742.38;10524285;28;2971;-77
2022/12/02 09:29:35;;;;;;;;;;;3.80;99.90;;;2.87;100.00;95732.66;10516305;28;2866;-78
2022/12/02 09:34:38;;;;;;;;;;;3.80;99.90;;;2.81;100.00;95733.56;10518653;28;2950;-77
2022/12/02 09:39:41;;;;;;;;;;;3.90;99.90;;;3.05;100.00;95735.22;10514637;28;2768;-78
2022/12/02 09:44:43;;;;;;;;;;;3.80;99.90;;;3.03;100.00;95728.53;10522726;28;2960;-73
2022/12/02 09:49:47;;;;;;;;;;;3.90;99.90;;;3.17;100.00;95724.63;10518901;28;2934;-72
2022/12/02 09:54:49;;;;;;;;;;;3.90;99.90;;;3.24;100.00;95720.84;10513321;28;2945;-78
2022/12/02 09:59:52;;;;;;;;;;;4.10;99.90;;;2.94;100.00;95720.91;10508213;28;2870;-77
2022/12/02 10:04:55;;;;;;;;;;;4.00;99.90;;;2.56;100.00;95718.56;10515461;28;2850;-73
2022/12/02 10:09:59;;;;;;;;;;;3.40;99.90;;;2.48;100.00;95721.50;10510496;28;2864;-74
2022/12/02 10:15:02;;;;;;;;;;;3.60;99.90;;;2.50;100.00;95713.34;10511368;28;2922;-72
2022/12/02 10:20:05;;;;;;;;;;;3.50;99.90;;;2.50;100.00;95714.16;10508698;28;2893;-73
2022/12/02 10:25:10;;;;;;;;;;;3.50;99.90;;;2.51;100.00;95705.16;10513570;28;2903;-73
2022/12/02 10:30:12;;;;;;;;;;;3.60;99.90;;;2.51;100.00;95699.84;10501873;28;2843;-77
2022/12/02 10:35:17;;;;;;;;;;;3.50;99.90;;;2.79;100.00;95712.53;10505853;28;2870;-76
2022/12/02 10:40:20;;;;;;;;;;;3.60;99.90;;;2.69;100.00;95701.66;10524466;28;2906;-77
2022/12/02 10:45:22;;;;;;;;;;;3.70;99.90;;;3.27;100.00;95697.53;10528472;28;2901;-77
2022/12/02 10:50:25;;;;;;;;;;;3.90;99.90;;;3.38;100.00;95694.06;10532441;28;2859;-78
2022/12/02 10:55:28;;;;;;;;;;;4.10;99.90;;;3.36;100.00;95690.81;10533861;28;3163;-78
2022/12/02 11:00:31;;;;;;;;;;;4.20;99.90;;;3.38;100.00;95680.78;10522234;28;2854;-83
2022/12/02 11:05:36;;;;;;;;;;;4.20;99.90;;;3.24;100.00;95674.88;10508543;28;2970;-80
2022/12/02 11:10:39;;;;;;;;;;;4.30;99.90;;;3.37;100.00;95666.69;10521678;28;2852;-79
2022/12/02 11:15:42;;;;;;;;;;;4.20;99.90;;;3.34;100.00;95669.00;10531022;28;2918;-83
2022/12/02 11:20:46;;;;;;;;;;;4.30;99.90;;;3.24;100.00;95658.94;10533071;28;3004;-79
2022/12/02 11:25:51;;;;;;;;;;;4.30;99.90;;;3.09;100.00;95666.53;10528799;28;2918;-81
2022/12/02 11:30:54;;;;;;;;;;;4.10;99.90;;;3.14;100.00;95664.00;10517570;28;2850;-78
2022/12/02 11:35:59;;;;;;;;;;;4.10;99.90;;;3.12;100.00;95663.44;10536648;28;2911;-81
2022/12/02 11:41:02;;;;;;;;;;;4.10;99.90;;;2.61;100.00;95668.28;10525670;28;2796;-76
2022/12/02 11:46:04;;;;;;;;;;;4.00;99.90;;;2.67;100.00;95664.75;10518509;28;2860;-78
2022/12/02 11:51:10;;;;;;;;;;;3.80;99.90;;;2.83;100.00;95660.59;10513639;28;3022;-75
2022/12/02 11:56:13;;;;;;;;;;;3.70;99.90;;;2.79;100.00;95650.66;10524995;28;2887;-74
2022/12/02 12:01:16;;;;;;;;;;;3.80;99.90;;;2.91;100.00;95646.19;10516856;28;2917;-76
2022/12/02 12:06:19;;;;;;;;;;;3.90;99.90;;;3.04;100.00;95645.97;10517585;28;2931;-74
2022/12/02 12:11:22;;;;;;;;;;;4.00;99.90;;;3.02;100.00;95652.56;10520563;28;2918;-75
2022/12/02 12:16:24;;;;;;;;;;;4.00;99.90;;;3.10;100.00;95644.25;10517391;28;3036;-73
2022/12/02 12:21:27;;;;;;;;;;;4.00;99.90;;;2.91;100.00;95638.22;10520001;28;2791;-72
2022/12/02 12:26:30;;;;;;;;;;;4.00;99.90;;;2.70;100.00;95635.06;10514028;28;2952;-79
2022/12/02 12:31:32;;;;;;;;;;;3.80;99.90;;;2.86;100.00;95630.13;10516372;28;2894;-79
2022/12/02 12:36:40;;;;;;;;;;;3.80;99.90;;;2.78;100.00;95620.66;10515577;28;2846;-74
2022/12/02 12:41:43;;;;;;;;;;;3.80;99.90;;;2.89;100.00;95627.03;10513779;28;2871;-74
2022/12/02 12:47:02;;;;;;;;;;;3.80;99.90;;;2.86;100.00;95622.16;10516555;28;2901;-73
2022/12/02 12:52:06;;;;;;;;;;;3.80;99.90;;;2.81;100.00;95619.41;10514768;28;2855;-74
2022/12/02 12:57:09;;;;;;;;;;;3.70;99.90;;;2.79;100.00;95621.47;10508030;28;2926;-75
2022/12/02 13:02:12;;;;;;;;;;;3.80;99.90;;;2.69;100.00;95616.72;10508510;28;2863;-78
2022/12/02 13:07:15;;;;;;;;;;;3.70;99.90;;;2.77;100.00;95612.94;10527286;28;2922;-80
2022/12/02 13:12:18;;;;;;;;;;;3.70;99.90;;;2.52;100.00;95619.22;10518500;28;2848;-80
2022/12/02 13:17:23;;;;;;;;;;;3.60;99.90;;;2.29;100.00;95616.47;10522355;28;2891;-77
2022/12/02 13:22:26;;;;;;;;;;;3.40;99.90;;;2.17;100.00;95625.22;10522656;28;3084;-79
2022/12/02 13:27:28;;;;;;;;;;;3.30;99.90;;;2.12;100.00;95622.44;10517737;28;2892;-77
2022/12/02 13:32:31;;;;;;;;;;;3.20;99.90;;;2.23;100.00;95628.00;10515768;28;2485;-76
2022/12/02 13:37:34;;;;;;;;;;;3.10;99.90;;;2.35;100.00;95621.69;10511618;28;2768;-75
2022/12/02 13:42:37;;;;;;;;;;;3.20;99.90;;;2.27;100.00;95629.16;10509496;28;2863;-74
2022/12/02 13:47:40;;;;;;;;;;;3.30;99.90;;;2.33;100.00;95631.72;10518945;28;3211;-76
2022/12/02 13:52:43;;;;;;;;;;;3.30;99.90;;;2.35;100.00;95632.31;10523243;28;2914;-75
2022/12/02 13:57:45;;;;;;;;;;;3.30;99.90;;;2.31;100.00;95635.66;10516593;28;2465;-75
2022/12/02 14:02:49;;;;;;;;;;;3.30;99.90;;;2.04;100.00;95633.34;10513798;28;2877;-75
2022/12/02 14:07:51;;;;;;;;;;;3.10;99.90;;;1.94;100.00;95634.91;10525821;28;3282;-73
2022/12/02 14:12:55;;;;;;;;;;;3.00;99.90;;;1.85;100.00;95645.81;10518532;28;2878;-76
2022/12/02 14:17:57;;;;;;;;;;;3.00;99.90;;;1.82;100.00;95645.44;10521044;28;2408;-77
2022/12/02 14:23:00;;;;;;;;;;;;;;;1.77;100.00;95643.44;10517167;28;2859;-79
2022/12/02 14:28:06;;;;;;;;;;;;;;;1.70;100.00;95644.56;10516598;28;2902;-78
2022/12/02 14:33:11;;;;;;;;;;;;;;;1.63;100.00;95648.09;10518818;28;2803;-77
2022/12/02 14:38:15;;;;;;;;;;;;;;;1.53;100.00;95655.75;10519975;28;2911;-70
2022/12/02 14:43:18;;;;;;;;;;;;;;;1.69;100.00;95653.53;10515455;28;2977;-70
2022/12/02 14:48:21;;;;;;;;;;;;;;;1.60;100.00;95656.50;10520964;28;2816;-79
2022/12/02 14:53:31;;;;;;;;;;;;;;;1.58;100.00;95647.94;10525879;28;2859;-80
2022/12/02 14:58:34;;;;;;;;;;;;;;;1.47;100.00;95661.91;10530756;28;2855;-79
2022/12/02 15:03:45;;;;;;;;;;;;;;;1.49;100.00;95665.16;10530251;28;2968;-81
2022/12/02 15:08:48;;;;;;;;;;;;;;;1.43;100.00;95660.72;10527562;28;2939;-70
2022/12/02 15:13:51;;;;;;;;;;;;;;;1.44;100.00;95667.63;10520296;28;2914;-72
2022/12/02 15:18:54;;;;;;;;;;;2.20;99.90;;;1.50;100.00;95664.13;10517802;28;2878;-69
2022/12/02 15:23:58;;;;;;;;;;;;;;;1.33;100.00;95660.41;10515428;28;2917;-68
2022/12/02 15:29:01;;;;;;;;;;;;;;;1.23;100.00;95670.72;10515708;28;2854;-68
2022/12/02 15:34:04;;;;;;;;;;;;;;;1.40;100.00;95673.59;10523110;28;2906;-69
2022/12/02 15:39:07;;;;;;;;;;;;;;;1.45;100.00;95676.41;10516462;28;3044;-68
2022/12/02 15:44:10;;;;;;;;;;;;;;;1.38;100.00;95667.72;10516252;28;2786;-74
2022/12/02 15:49:13;;;;;;;;;;;2.40;99.90;;;1.45;100.00;95669.25;10537912;28;2846;-72
2022/12/02 15:54:15;;;;;;;;;;;2.40;99.90;;;1.32;100.00;95679.97;10511908;28;3020;-76
2022/12/02 15:59:19;;;;;;;;;;;2.40;99.90;;;1.34;100.00;95670.00;10509899;28;2875;-72
2022/12/02 16:04:22;;;;;;;;;;;2.40;99.90;;;1.60;100.00;95666.28;10489537;28;2876;-71
2022/12/02 16:09:24;;;;;;;;;;;2.40;99.90;;;1.61;100.00;95679.28;10512610;28;2937;-69
2022/12/02 16:14:37;;;;;;;;;;;2.60;99.90;;;1.57;100.00;95680.75;10515088;28;2944;-65
2022/12/02 16:19:40;;;;;;;;;;;2.60;99.90;;;1.42;100.00;95682.94;10512718;28;2835;-66
2022/12/02 16:24:43;;;;;;;;;;;2.50;99.90;;;1.51;100.00;95684.28;10506866;28;2441;-67
2022/12/02 16:29:45;;;;;;;;;;;2.50;99.90;;;1.37;100.00;95685.44;10502535;28;2947;-66
2022/12/02 16:34:48;;;;;;;;;;;2.40;99.90;;;1.33;100.00;95690.34;10490468;28;2902;-67
2022/12/02 16:39:52;;;;;;;;;;;2.50;99.90;;;1.50;100.00;95690.59;10501342;28;2836;-67
2022/12/02 16:44:54;;;;;;;;;;;2.40;99.90;;;1.63;100.00;95693.13;10512990;28;2937;-67
2022/12/02 16:49:57;;;;;;;;;;;2.60;99.90;;;1.73;100.00;95687.34;10505061;28;2851;-67
2022/12/02 16:55:01;;;;;;;;;;;2.70;99.90;;;1.59;100.00;95689.31;10508535;28;2551;-67
2022/12/02 17:00:04;;;;;;;;;;;2.70;99.90;;;1.66;100.00;95696.38;10508895;28;2898;-68
2022/12/02 17:05:07;;;;;;;;;;;2.60;99.90;;;1.52;100.00;95701.78;10507541;28;2924;-69
2022/12/02 17:10:10;;;;;;;;;;;2.60;99.90;;;1.47;100.00;95698.19;10500923;28;2850;-67
2022/12/02 17:15:13;;;;;;;;;;;2.60;99.90;;;1.50;100.00;95705.69;10495003;28;2909;-68
2022/12/02 17:20:18;;;;;;;;;;;2.50;99.90;;;1.56;100.00;95708.28;10506520;28;2830;-69
2022/12/02 17:25:21;;;;;;;;;;;2.60;99.90;;;1.50;100.00;95698.56;10509794;28;2922;-66
2022/12/02 17:30:23;;;;;;;;;;;2.60;99.90;;;1.50;100.00;95706.50;10493973;28;2421;-67
2022/12/02 17:35:26;;;;;;;;;;;2.60;99.90;;;1.57;100.00;95701.13;10512783;28;2856;-69
2022/12/02 17:40:29;;;;;;;;;;;2.60;99.90;;;1.56;100.00;95707.47;10524576;28;2462;-68
2022/12/02 17:45:32;;;;;;;;;;;2.50;99.90;;;1.65;100.00;95705.34;10526980;28;3037;-67
2022/12/02 17:50:38;;;;;;;;;;;2.60;99.90;;;1.53;100.00;95708.72;10508643;28;2884;-66
2022/12/02 17:55:40;;;;;;;;;;;2.70;99.90;;;1.45;100.00;95706.34;10524814;28;2894;-68
2022/12/02 18:00:44;;;;;;;;;;;2.50;99.90;;;1.51;100.00;95710.78;10521261;28;3153;-68
2022/12/02 18:05:47;;;;;;;;;;;2.50;99.90;;;1.39;100.00;95711.69;10521320;28;2453;-68
2022/12/02 18:10:50;;;;;;;;;;;2.50;99.90;;;1.27;100.00;95708.94;10525066;28;2904;-68
2022/12/02 18:15:53;;;;;;;;;;;2.50;99.90;;;1.22;100.00;95706.97;10521394;28;2851;-67
2022/12/02 18:20:56;;;;;;;;;;;2.40;99.90;;;1.28;100.00;95700.00;10521275;28;3291;-70
2022/12/02 18:25:59;;;;;;;;;;;2.30;99.90;;;1.31;100.00;95703.00;10529972;28;2477;-68
2022/12/02 18:31:02;;;;;;;;;;;2.40;99.90;;;1.25;100.00;95697.75;10518113;28;2997;-68
2022/12/02 18:36:05;;;;;;;;;;;2.30;99.90;;;1.21;100.00;95697.41;10513436;28;2954;-68
2022/12/02 18:41:07;;;;;;;;;;;2.40;99.90;;;1.20;100.00;95693.13;10517004;28;2505;-68
2022/12/02 18:46:10;;;;;;;;;;;2.30;99.90;;;1.24;100.00;95698.81;10509224;28;3093;-66
2022/12/02 18:51:13;;;;;;;;;;;2.20;99.90;;;1.31;100.00;95695.06;10518852;28;2457;-69
2022/12/02 18:56:15;;;;;;;;;;;2.30;99.90;;;1.28;100.00;95684.09;10518842;28;2974;-67
2022/12/02 19:01:26;;;;;;;;;;;2.40;99.90;;;1.22;100.00;95679.69;10547598;27;2918;-68
2022/12/02 19:06:35;;;;;;;;;;;2.20;99.90;;;1.24;100.00;95683.72;10531956;28;2878;-70
2022/12/02 19:11:38;;;;;;;;;;;2.30;99.90;;;1.13;100.00;95680.97;10526309;28;2852;-69
2022/12/02 19:16:41;;;;;;;;;;;2.20;99.90;;;1.14;100.00;95679.94;10529448;28;3080;-68
2022/12/02 19:21:43;;;;;;;;;;;2.20;99.90;;;1.05;100.00;95676.75;10518263;28;2926;-68
2022/12/02 19:26:48;;;;;;;;;;;2.10;99.90;;;1.05;100.00;95682.84;10529596;28;2880;-67
2022/12/02 19:31:52;;;;;;;;;;;2.10;99.90;;;1.07;100.00;95686.09;10520636;28;2854;-72
2022/12/02 19:36:55;;;;;;;;;;;2.10;99.90;;;1.15;100.00;95695.63;10515588;28;2442;-78
2022/12/02 19:41:58;;;;;;;;;;;2.10;99.90;;;1.27;100.00;95698.34;10520449;28;2945;-78
2022/12/02 19:47:00;;;;;;;;;;;2.30;99.90;;;1.27;100.00;95695.69;10517064;28;2991;-68
2022/12/02 19:52:06;;;;;;;;;;;2.30;99.90;;;1.32;100.00;95703.81;10522900;28;2894;-72
2022/12/02 19:57:08;;;;;;;;;;;2.30;99.90;;;1.30;100.00;95695.28;10521007;28;2843;-68
2022/12/02 20:02:11;;;;;;;;;;;2.30;99.90;;;1.30;100.00;95696.09;10523894;28;2928;-68
2022/12/02 20:07:14;;;;;;;;;;;2.30;99.90;;;1.27;100.00;95698.34;10524189;28;2906;-69
2022/12/02 20:12:17;;;;;;;;;;;2.20;99.90;;;1.05;100.00;95695.28;10531044;28;3029;-68
2022/12/02 20:17:19;;;;;;;;;;;2.20;99.90;;;1.05;100.00;95706.69;10518218;28;2920;-67
2022/12/02 20:22:22;;;;;;;;;;;2.10;99.90;;;0.95;100.00;95701.03;10515614;28;2898;-68
2022/12/02 20:27:25;;;;;;;;;;;2.10;99.90;;;1.01;100.00;95716.06;10529596;28;2496;-71
2022/12/02 20:32:27;;;;;;;;;;;2.00;99.90;;;0.88;100.00;95710.06;10524507;28;3225;-67
2022/12/02 20:37:30;;;;;;;;;;;;;;;0.79;100.00;95717.47;10507886;28;2511;-68
2022/12/02 20:42:34;;;;;;;;;;;;;;;0.68;100.00;95715.50;10521455;28;2902;-69
2022/12/02 20:47:37;;;;;;;;;;;;;;;0.69;100.00;95712.63;10528793;28;2960;-67
2022/12/02 20:52:40;;;;;;;;;;;;;;;0.73;100.00;95707.72;10518355;28;2909;-69
2022/12/02 20:57:43;;;;;;;;;;;;;;;0.73;100.00;95713.03;10529346;28;2906;-67
2022/12/02 21:02:47;;;;;;;;;;;;;;;0.84;100.00;95711.53;10516323;28;3027;-69
2022/12/02 21:07:50;;;;;;;;;;;;;;;0.56;100.00;95711.91;10529086;28;2927;-69
2022/12/02 21:12:54;;;;;;;;;;;;;;;0.71;100.00;95709.78;10526063;28;2939;-67
2022/12/02 21:18:02;;;;;;;;;;;;;;;0.76;100.00;95716.06;10527731;28;2430;-68
2022/12/02 21:23:06;;;;;;;;;;;;;;;0.70;100.00;95713.44;10522444;28;2922;-68
2022/12/02 21:28:09;;;;;;;;;;;;;;;0.63;100.00;95712.66;10523871;28;2870;-67
2022/12/02 21:33:14;;;;;;;;;;;;;;;0.77;100.00;95719.53;10517326;28;2891;-68
2022/12/02 21:38:19;;;;;;;;;;;;;;;0.73;100.00;95708.53;10519477;28;2950;-67
2022/12/02 21:43:22;;;;;;;;;;;;;;;0.79;100.00;95717.47;10516980;28;2927;-66
2022/12/02 21:48:26;;;;;;;;;;;;;;;0.71;100.00;95720.38;10519270;28;3008;-66
2022/12/02 21:53:30;;;;;;;;;;;;;;;0.81;100.00;95726.00;10515800;28;2927;-66
2022/12/02 21:58:33;;;;;;;;;;;;;;;0.87;100.00;95721.69;10519463;28;2466;-68
2022/12/02 22:03:36;;;;;;;;;;;;;;;0.73;100.00;95723.59;10525017;28;2919;-67
2022/12/02 22:08:39;;;;;;;;;;;;;;;0.80;100.00;95727.81;10526201;28;2883;-66
2022/12/02 22:13:42;;;;;;;;;;;;;;;0.77;100.00;95719.53;10527734;28;2907;-66
2022/12/02 22:18:46;;;;;;;;;;;;;;;0.79;100.00;95720.09;10523784;28;2935;-70
2022/12/02 22:23:49;;;;;;;;;;;;;;;0.86;100.00;95717.41;10522418;28;2926;-67
2022/12/02 22:28:53;;;;;;;;;;;;;;;0.92;100.00;95717.38;10531200;28;2966;-67
2022/12/02 22:33:56;;;;;;;;;;;;;;;0.80;100.00;95714.59;10519498;28;2895;-66
2022/12/02 22:38:59;;;;;;;;;;;;;;;0.82;100.00;95717.81;10532937;28;2922;-68
2022/12/02 22:44:03;;;;;;;;;;;;;;;0.80;100.00;95713.78;10531601;28;2919;-68
2022/12/02 22:49:06;;;;;;;;;;;;;;;0.84;100.00;95711.53;10525094;28;2996;-66
2022/12/02 22:54:12;;;;;;;;;;;;;;;0.86;100.00;95709.47;10524123;28;2882;-77
2022/12/02 22:59:15;;;;;;;;;;;;;;;0.89;100.00;95706.38;10519008;28;3012;-73
2022/12/02 23:04:18;;;;;;;;;;;;;;;0.84;100.00;95707.06;10517965;28;2893;-76
2022/12/02 23:09:21;;;;;;;;;;;;;;;0.65;100.00;95715.94;10524187;28;2863;-69
2022/12/02 23:14:25;;;;;;;;;;;;;;;0.61;100.00;95715.53;10503404;28;2812;-67
2022/12/02 23:19:28;;;;;;;;;;;;;;;0.60;100.00;95718.41;10512389;28;2894;-75
2022/12/02 23:24:31;;;;;;;;;;;;;;;0.44;100.00;95719.69;10512356;28;2987;-74
2022/12/02 23:29:34;;;;;;;;;;;;;;;0.54;100.00;95720.84;10510601;28;2882;-72
2022/12/02 23:34:38;;;;;;;;;;;;;;;0.46;100.00;95721.13;10493187;28;2902;-71
2022/12/02 23:39:41;;;;;;;;;;;;;;;0.53;100.00;95711.31;10521244;28;2848;-71
2022/12/02 23:44:44;;;;;;;;;;;;;;;0.38;100.00;95710.78;10530047;28;3014;-69
2022/12/02 23:49:57;;;;;;;;;;;;;;;0.38;100.00;95710.78;10530141;28;2913;-68
2022/12/02 23:55:00;;;;;;;;;;;;;;;0.50;100.00;95706.44;10516931;28;2867;-69
